createdAt,value
2023-02-11T00:01:33.174Z,19.07
2023-02-11T00:04:35.982Z,18.40
2023-02-11T00:07:38.939Z,17.58
2023-02-11T00:10:41.691Z,17.83
2023-02-11T00:13:45.178Z,19.60
2023-02-11T00:16:47.959Z,18.53
2023-02-11T00:19:51.967Z,18.05
2023-02-11T00:22:54.658Z,18.25
2023-02-11T00:25:57.068Z,19.25
2023-02-11T00:29:00.901Z,18.83
2023-02-11T00:32:05.447Z,18.17
2023-02-11T00:35:08.646Z,18.83
2023-02-11T00:38:11.057Z,17.58
2023-02-11T00:41:14.802Z,18.05
2023-02-11T00:44:17.336Z,18.43
2023-02-11T00:47:20.036Z,17.43
2023-02-11T00:50:22.831Z,18.67
2023-02-11T00:53:25.764Z,17.37
2023-02-11T00:56:28.210Z,18.05
2023-02-11T00:59:31.613Z,18.33
2023-02-11T01:02:34.123Z,16.73
2023-02-11T01:05:37.056Z,16.98
2023-02-11T01:08:40.249Z,15.85
2023-02-11T01:11:44.364Z,14.60
2023-02-11T01:14:47.205Z,17.13
2023-02-11T01:17:50.088Z,19.33
2023-02-11T01:20:54.259Z,18.70
2023-02-11T01:23:58.791Z,20.20
2023-02-11T01:27:01.358Z,19.80
2023-02-11T01:30:05.555Z,18.60
2023-02-11T01:33:07.997Z,19.40
2023-02-11T01:36:12.842Z,19.65
2023-02-11T01:39:15.416Z,19.00
2023-02-11T01:42:21.228Z,18.40
2023-02-11T01:45:46.212Z,20.97
2023-02-11T01:48:53.467Z,18.27
2023-02-11T01:52:13.253Z,18.30
2023-02-11T01:55:35.093Z,18.23
2023-02-11T01:58:42.096Z,20.62
2023-02-11T02:01:51.962Z,18.53
2023-02-11T02:05:02.794Z,19.60
2023-02-11T02:08:31.048Z,18.70
2023-02-11T02:11:33.829Z,14.82
2023-02-11T02:14:40.659Z,18.92
2023-02-11T02:17:54.315Z,18.70
2023-02-11T02:21:29.229Z,17.50
2023-02-11T02:24:44.085Z,18.90
2023-02-11T02:28:03.327Z,18.70
2023-02-11T02:31:24.088Z,19.60
2023-02-11T02:34:41.908Z,19.30
2023-02-11T02:37:47.612Z,17.57
2023-02-11T02:41:18.002Z,19.83
2023-02-11T02:44:21.372Z,18.70
2023-02-11T02:47:23.797Z,17.83
2023-02-11T02:50:34.217Z,17.40
2023-02-11T02:53:55.449Z,17.80
2023-02-11T02:57:07.391Z,17.75
2023-02-11T03:00:15.342Z,19.08
2023-02-11T03:03:31.307Z,16.75
2023-02-11T03:06:46.230Z,19.93
2023-02-11T03:10:19.421Z,19.57
2023-02-11T03:13:28.407Z,19.37
2023-02-11T03:16:38.087Z,19.00
2023-02-11T03:19:46.760Z,18.42
2023-02-11T03:23:02.227Z,20.80
2023-02-11T03:26:23.403Z,19.27
2023-02-11T03:29:54.665Z,17.65
2023-02-11T03:33:14.306Z,19.40
2023-02-11T03:36:28.914Z,17.75
2023-02-11T03:39:37.113Z,19.17
2023-02-11T03:42:57.705Z,18.40
2023-02-11T03:46:01.337Z,19.08
2023-02-11T03:49:08.637Z,18.10
2023-02-11T03:52:13.003Z,18.58
2023-02-11T03:55:21.103Z,17.00
2023-02-11T03:58:23.505Z,18.73
2023-02-11T04:01:26.195Z,18.20
2023-02-11T04:04:28.920Z,18.73
2023-02-11T04:07:32.086Z,16.83
2023-02-11T04:10:34.854Z,17.13
2023-02-11T04:13:37.301Z,18.07
2023-02-11T04:16:41.093Z,18.73
2023-02-11T04:19:43.632Z,18.75
2023-02-11T04:22:46.313Z,19.50
2023-02-11T04:25:51.872Z,19.13
2023-02-11T04:28:57.474Z,17.63
2023-02-11T04:31:59.906Z,19.23
2023-02-11T04:35:03.701Z,18.10
2023-02-11T04:38:06.103Z,19.15
2023-02-11T04:41:08.854Z,19.23
2023-02-11T04:44:11.182Z,18.97
2023-02-11T04:47:15.441Z,18.85
2023-02-11T04:50:18.036Z,19.90
2023-02-11T04:53:23.109Z,20.33
2023-02-11T04:56:25.746Z,19.40
2023-02-11T04:59:28.524Z,19.53
2023-02-11T05:02:31.455Z,19.40
2023-02-11T05:05:34.767Z,20.25
2023-02-11T05:08:37.226Z,21.77
2023-02-11T05:11:40.232Z,20.50
2023-02-11T05:14:42.621Z,22.03
2023-02-11T05:17:45.427Z,19.98
2023-02-11T05:20:47.978Z,20.52
2023-02-11T05:23:50.855Z,20.92
2023-02-11T05:26:53.606Z,22.43
2023-02-11T05:29:57.430Z,22.33
2023-02-11T05:32:59.758Z,21.30
2023-02-11T05:36:06.746Z,21.55
2023-02-11T05:39:09.139Z,21.17
2023-02-11T05:42:11.916Z,23.50
2023-02-11T05:45:14.384Z,22.87
2023-02-11T05:48:17.836Z,22.02
2023-02-11T05:51:20.372Z,22.00
2023-02-11T05:54:23.111Z,23.60
2023-02-11T05:57:25.633Z,24.10
2023-02-11T06:00:28.822Z,21.97
2023-02-11T06:03:31.479Z,22.17
2023-02-11T06:06:34.328Z,22.58
2023-02-11T06:09:37.808Z,20.77
2023-02-11T06:12:40.250Z,23.23
2023-02-11T06:15:43.012Z,21.93
2023-02-11T06:18:45.473Z,23.45
2023-02-11T06:21:48.233Z,23.85
2023-02-11T06:25:01.228Z,23.65
2023-02-11T06:28:04.930Z,23.67
2023-02-11T06:31:08.313Z,22.63
2023-02-11T06:34:11.137Z,22.40
2023-02-11T06:37:13.710Z,22.65
2023-02-11T06:40:16.413Z,23.10
2023-02-11T06:43:18.841Z,25.53
2023-02-11T06:46:21.984Z,23.13
2023-02-11T06:49:24.363Z,23.23
2023-02-11T06:52:27.090Z,23.87
2023-02-11T06:55:29.462Z,23.23
2023-02-11T06:58:32.893Z,22.90
2023-02-11T07:01:35.278Z,24.00
2023-02-11T07:04:38.092Z,24.23
2023-02-11T07:07:40.699Z,24.05
2023-02-11T07:10:43.581Z,25.62
2023-02-11T07:13:46.874Z,24.17
2023-02-11T07:16:49.593Z,24.27
2023-02-11T07:19:51.992Z,23.40
2023-02-11T07:22:55.750Z,24.95
2023-02-11T07:25:58.317Z,23.45
2023-02-11T07:29:01.122Z,22.33
2023-02-11T07:32:03.584Z,23.10
2023-02-11T07:35:06.562Z,19.87
2023-02-11T07:38:09.026Z,22.02
2023-02-11T07:41:14.546Z,24.35
2023-02-11T07:44:17.174Z,23.27
2023-02-11T07:47:20.123Z,25.63
2023-02-11T07:50:22.704Z,23.35
2023-02-11T07:53:25.527Z,23.90
2023-02-11T07:56:29.836Z,24.00
2023-02-11T07:59:32.676Z,23.67
2023-02-11T08:02:35.187Z,15.90
2023-02-11T08:05:38.826Z,16.42
2023-02-11T08:08:42.055Z,19.85
2023-02-11T08:11:44.977Z,17.65
2023-02-11T08:14:47.437Z,17.63
2023-02-11T08:17:50.116Z,21.57
2023-02-11T08:20:52.780Z,21.35
2023-02-11T08:23:56.567Z,18.83
2023-02-11T08:26:59.407Z,17.55
2023-02-11T08:30:02.908Z,13.48
2023-02-11T08:33:05.316Z,13.47
2023-02-11T08:36:13.219Z,15.60
2023-02-11T08:39:20.292Z,14.00
2023-02-11T08:42:23.472Z,13.40
2023-02-11T08:45:26.014Z,12.60
2023-02-11T08:48:29.444Z,14.53
2023-02-11T08:51:32.379Z,14.30
2023-02-11T08:54:35.166Z,15.18
2023-02-11T08:57:37.549Z,13.95
2023-02-11T09:00:40.361Z,13.67
2023-02-11T09:03:42.868Z,14.77
2023-02-11T09:06:46.016Z,15.82
2023-02-11T09:09:48.546Z,14.73
2023-02-11T09:12:51.336Z,13.82
2023-02-11T09:15:53.799Z,13.83
2023-02-11T09:18:58.304Z,15.57
2023-02-11T09:22:01.619Z,14.85
2023-02-11T09:25:04.418Z,14.13
2023-02-11T09:28:09.190Z,15.45
2023-02-11T09:31:15.820Z,17.17
2023-02-11T09:34:18.380Z,16.10
2023-02-11T09:37:21.328Z,15.93
2023-02-11T09:40:23.833Z,15.43
2023-02-11T09:43:48.134Z,15.90
2023-02-11T09:46:56.845Z,16.37
2023-02-11T09:50:07.715Z,14.50
2023-02-11T09:53:24.158Z,15.90
2023-02-11T09:56:28.447Z,15.98
2023-02-11T09:59:30.951Z,14.75
2023-02-11T10:02:45.019Z,14.52
2023-02-11T10:05:50.665Z,14.67
2023-02-11T10:08:58.940Z,15.43
2023-02-11T10:12:25.617Z,15.48
2023-02-11T10:15:55.340Z,15.43
2023-02-11T10:19:50.509Z,17.30
2023-02-11T10:22:55.553Z,17.63
2023-02-11T10:25:59.987Z,17.20
2023-02-11T10:29:12.824Z,16.90
2023-02-11T10:32:45.862Z,16.55
2023-02-11T10:35:48.928Z,17.05
2023-02-11T10:38:51.540Z,15.17
2023-02-11T10:42:03.010Z,17.08
2023-02-11T10:45:07.472Z,16.85
2023-02-11T10:48:41.007Z,16.90
2023-02-11T10:51:43.673Z,15.70
2023-02-11T10:55:06.807Z,16.07
2023-02-11T10:58:24.607Z,16.98
2023-02-11T11:01:43.842Z,16.45
2023-02-11T11:04:47.821Z,17.62
2023-02-11T11:07:59.685Z,14.90
2023-02-11T11:11:05.933Z,17.23
2023-02-11T11:14:19.749Z,14.68
2023-02-11T11:17:22.854Z,15.63
2023-02-11T11:20:32.383Z,15.63
2023-02-11T11:23:37.179Z,16.52
2023-02-11T11:26:52.308Z,14.10
2023-02-11T11:29:56.489Z,15.38
2023-02-11T11:32:59.957Z,15.38
2023-02-11T11:36:02.692Z,15.40
2023-02-11T11:39:31.263Z,15.25
2023-02-11T11:42:36.164Z,15.17
2023-02-11T11:45:39.279Z,14.43
2023-02-11T11:48:49.760Z,14.40
2023-02-11T11:52:17.747Z,14.00
2023-02-11T11:55:31.169Z,13.07
2023-02-11T11:58:35.232Z,12.90
2023-02-11T12:01:45.288Z,11.10
2023-02-11T12:05:11.885Z,11.68
2023-02-11T12:08:33.827Z,12.07
2023-02-11T12:11:58.943Z,11.88
2023-02-11T12:15:38.630Z,11.50
2023-02-11T12:19:10.177Z,11.77
2023-02-11T12:22:22.463Z,12.32
2023-02-11T12:25:35.977Z,11.10
2023-02-11T12:29:14.179Z,10.85
2023-02-11T12:32:22.221Z,10.27
2023-02-11T12:35:55.799Z,10.50
2023-02-11T12:39:29.954Z,11.55
2023-02-11T12:43:10.620Z,9.98
2023-02-11T12:46:52.938Z,8.82
2023-02-11T12:50:17.176Z,8.20
2023-02-11T12:53:20.412Z,8.68
2023-02-11T12:56:48.723Z,8.63
2023-02-11T13:00:20.980Z,8.30
2023-02-11T13:03:47.315Z,9.07
2023-02-11T13:06:55.536Z,8.43
2023-02-11T13:10:24.377Z,8.13
2023-02-11T13:13:47.998Z,7.95
2023-02-11T13:16:51.458Z,8.95
2023-02-11T13:20:01.553Z,8.38
2023-02-11T13:23:06.919Z,8.20
2023-02-11T13:26:54.139Z,8.32
2023-02-11T13:30:21.403Z,7.72
2023-02-11T13:33:37.593Z,8.23
2023-02-11T13:36:40.204Z,8.07
2023-02-11T13:39:42.945Z,8.27
2023-02-11T13:42:59.453Z,7.80
2023-02-11T13:46:10.142Z,7.82
2023-02-11T13:49:21.669Z,8.25
2023-02-11T13:52:28.982Z,9.15
2023-02-11T13:55:32.412Z,7.53
2023-02-11T13:58:48.789Z,8.77
2023-02-11T14:02:13.964Z,8.10
2023-02-11T14:05:40.113Z,9.35
2023-02-11T14:09:01.625Z,8.25
2023-02-11T14:12:34.039Z,9.20
2023-02-11T14:15:40.773Z,8.90
2023-02-11T14:18:49.590Z,9.82
2023-02-11T14:21:51.985Z,8.63
2023-02-11T14:25:03.530Z,10.30
2023-02-11T14:28:25.169Z,9.13
2023-02-11T14:31:40.380Z,9.02
2023-02-11T14:34:53.658Z,8.82
2023-02-11T14:38:31.646Z,9.10
2023-02-11T14:41:43.807Z,8.73
2023-02-11T14:44:50.262Z,9.00
2023-02-11T14:48:04.693Z,9.07
2023-02-11T14:51:11.332Z,9.15
2023-02-11T14:54:25.447Z,8.93
2023-02-11T14:57:29.781Z,8.52
2023-02-11T15:00:32.339Z,8.83
2023-02-11T15:03:35.014Z,9.25
2023-02-11T15:06:41.263Z,9.38
2023-02-11T15:09:52.957Z,10.82
2023-02-11T15:12:56.021Z,8.77
2023-02-11T15:16:07.097Z,9.87
2023-02-11T15:19:20.952Z,9.73
2023-02-11T15:22:29.712Z,8.88
2023-02-11T15:25:34.179Z,10.32
2023-02-11T15:28:37.136Z,9.77
2023-02-11T15:31:39.719Z,9.20
2023-02-11T15:34:44.511Z,10.60
2023-02-11T15:37:48.961Z,9.75
2023-02-11T15:41:02.184Z,10.77
2023-02-11T15:44:04.948Z,9.27
2023-02-11T15:47:11.322Z,11.07
2023-02-11T15:50:29.787Z,11.75
2023-02-11T15:53:43.087Z,9.77
2023-02-11T15:56:49.302Z,10.00
2023-02-11T15:59:54.189Z,10.48
2023-02-11T16:02:56.670Z,10.17
2023-02-11T16:06:18.996Z,9.90
2023-02-11T16:09:24.631Z,10.98
2023-02-11T16:12:27.975Z,10.40
2023-02-11T16:15:33.854Z,10.75
2023-02-11T16:18:40.174Z,10.97
2023-02-11T16:21:45.314Z,10.95
2023-02-11T16:24:49.761Z,10.60
2023-02-11T16:27:53.824Z,10.40
2023-02-11T16:30:57.727Z,10.30
2023-02-11T16:34:00.401Z,10.23
2023-02-11T16:37:05.380Z,10.65
2023-02-11T16:40:09.415Z,9.43
2023-02-11T16:43:12.465Z,10.43
2023-02-11T16:46:16.157Z,11.05
2023-02-11T16:49:27.859Z,10.30
2023-02-11T16:52:34.111Z,9.60
2023-02-11T16:55:38.707Z,11.32
2023-02-11T16:58:41.393Z,10.07
2023-02-11T17:01:45.403Z,11.05
2023-02-11T17:04:48.341Z,10.67
2023-02-11T17:07:51.574Z,11.93
2023-02-11T17:10:54.350Z,10.82
2023-02-11T17:13:57.151Z,10.57
2023-02-11T17:16:59.605Z,10.90
2023-02-11T17:20:02.357Z,10.33
2023-02-11T17:23:04.883Z,10.48
2023-02-11T17:26:08.341Z,10.38
2023-02-11T17:29:13.592Z,11.02
2023-02-11T17:32:16.459Z,12.13
2023-02-11T17:35:18.901Z,11.23
2023-02-11T17:38:21.752Z,11.02
2023-02-11T17:41:27.771Z,10.38
2023-02-11T17:44:30.538Z,10.75
2023-02-11T17:47:32.938Z,11.32
2023-02-11T17:50:37.113Z,10.93
2023-02-11T17:53:39.628Z,11.18
2023-02-11T17:56:42.862Z,11.68
2023-02-11T17:59:45.318Z,11.45
2023-02-11T18:02:48.070Z,11.82
2023-02-11T18:05:51.112Z,10.77
2023-02-11T18:08:56.845Z,10.52
2023-02-11T18:12:02.993Z,12.90
2023-02-11T18:15:05.920Z,11.30
2023-02-11T18:18:08.695Z,10.27
2023-02-11T18:21:16.922Z,10.80
2023-02-11T18:24:19.901Z,10.80
2023-02-11T18:27:22.378Z,10.82
2023-02-11T18:30:25.840Z,12.07
2023-02-11T18:33:29.392Z,11.57
2023-02-11T18:36:32.125Z,10.83
2023-02-11T18:39:35.056Z,11.30
2023-02-11T18:42:37.904Z,11.38
2023-02-11T18:45:44.311Z,10.60
2023-02-11T18:48:47.022Z,10.38
2023-02-11T18:51:49.533Z,9.87
2023-02-11T18:54:52.582Z,10.57
2023-02-11T18:57:55.208Z,9.98
2023-02-11T19:00:57.917Z,10.48
2023-02-11T19:04:04.425Z,10.20
2023-02-11T19:07:07.387Z,10.90
2023-02-11T19:10:10.342Z,10.07
2023-02-11T19:13:14.047Z,10.30
2023-02-11T19:16:19.810Z,10.57
2023-02-11T19:19:24.525Z,10.93
2023-02-11T19:22:26.869Z,9.17
2023-02-11T19:25:29.652Z,10.70
2023-02-11T19:28:32.997Z,9.80
2023-02-11T19:31:35.890Z,9.93
2023-02-11T19:34:42.466Z,10.73
2023-02-11T19:37:48.111Z,10.47
2023-02-11T19:40:56.157Z,10.73
2023-02-11T19:43:58.917Z,10.73
2023-02-11T19:47:01.830Z,10.43
2023-02-11T19:50:05.775Z,9.93
2023-02-11T19:53:08.169Z,10.73
2023-02-11T19:56:12.742Z,11.20
2023-02-11T19:59:16.050Z,11.55
2023-02-11T20:02:18.786Z,11.02
2023-02-11T20:05:21.629Z,11.77
2023-02-11T20:08:23.997Z,12.97
2023-02-11T20:11:29.134Z,11.63
2023-02-11T20:14:33.201Z,10.55
2023-02-11T20:17:36.240Z,11.32
2023-02-11T20:20:38.758Z,11.30
2023-02-11T20:23:41.861Z,10.47
2023-02-11T20:26:45.949Z,10.52
2023-02-11T20:29:48.861Z,11.15
2023-02-11T20:32:51.336Z,9.43
2023-02-11T20:35:56.184Z,10.20
2023-02-11T20:39:00.241Z,9.70
2023-02-11T20:42:03.035Z,9.77
2023-02-11T20:45:05.555Z,10.75
2023-02-11T20:48:08.300Z,10.70
2023-02-11T20:51:16.849Z,11.38
2023-02-11T20:54:21.037Z,10.23
2023-02-11T20:57:23.369Z,10.43
2023-02-11T21:00:25.993Z,9.90
2023-02-11T21:03:29.153Z,10.27
2023-02-11T21:06:40.312Z,10.00
2023-02-11T21:09:43.253Z,10.27
2023-02-11T21:12:48.200Z,10.70
2023-02-11T21:15:56.332Z,11.27
2023-02-11T21:19:00.634Z,9.35
2023-02-11T21:22:03.148Z,10.93
2023-02-11T21:25:06.311Z,10.63
2023-02-11T21:28:08.749Z,10.50
2023-02-11T21:31:20.835Z,11.00
2023-02-11T21:34:23.386Z,9.80
2023-02-11T21:37:26.462Z,10.55
2023-02-11T21:40:29.557Z,10.87
2023-02-11T21:43:32.674Z,10.80
2023-02-11T21:46:35.421Z,10.70
2023-02-11T21:49:38.659Z,11.23
2023-02-11T21:52:41.165Z,10.52
2023-02-11T21:55:43.929Z,9.87
2023-02-11T21:58:46.813Z,10.45
2023-02-11T22:01:52.002Z,10.73
2023-02-11T22:04:54.955Z,10.02
2023-02-11T22:07:57.420Z,10.20
2023-02-11T22:11:05.568Z,10.50
2023-02-11T22:14:07.955Z,9.90
2023-02-11T22:17:10.758Z,10.93
2023-02-11T22:20:13.586Z,10.27
2023-02-11T22:23:16.502Z,11.30
2023-02-11T22:26:24.262Z,10.23
2023-02-11T22:29:26.983Z,10.00
2023-02-11T22:32:29.405Z,9.80
2023-02-11T22:35:34.530Z,10.10
2023-02-11T22:38:38.077Z,9.90
2023-02-11T22:41:42.163Z,8.23
2023-02-11T22:44:44.748Z,9.90
2023-02-11T22:47:47.442Z,8.65
2023-02-11T22:50:50.458Z,9.57
2023-02-11T22:53:56.194Z,10.50
2023-02-11T22:56:58.580Z,9.37
2023-02-11T23:00:01.347Z,9.70
2023-02-11T23:03:04.522Z,10.52
2023-02-11T23:06:08.251Z,9.90
2023-02-11T23:09:12.481Z,9.43
2023-02-11T23:12:15.390Z,10.53
2023-02-11T23:15:17.946Z,10.38
2023-02-11T23:18:20.702Z,10.00
2023-02-11T23:21:25.968Z,10.10
2023-02-11T23:24:28.780Z,10.93
2023-02-11T23:27:31.147Z,8.63
2023-02-11T23:30:34.291Z,8.57
2023-02-11T23:33:36.681Z,9.43
2023-02-11T23:36:39.331Z,9.68
2023-02-11T23:39:41.873Z,8.18
2023-02-11T23:42:45.682Z,9.67
2023-02-11T23:45:48.198Z,10.73
2023-02-11T23:48:51.983Z,9.27
2023-02-11T23:51:54.690Z,9.88
2023-02-11T23:54:57.685Z,9.93
2023-02-11T23:58:00.114Z,9.97
